sensor_id;sensor_type;location;lat;lon;timestamp;pressure;altitude;pressure_sealevel;temperature;humidity
39729;BME280;25402;42.004;23.088;2022-08-06T00:02:00;97154.91;;;19.04;36.34
39729;BME280;25402;42.004;23.088;2022-08-06T00:04:26;97152.66;;;19.01;36.58
39729;BME280;25402;42.004;23.088;2022-08-06T00:06:53;97155.31;;;18.96;36.89
39729;BME280;25402;42.004;23.088;2022-08-06T00:09:19;97142.78;;;18.83;36.75
39729;BME280;25402;42.004;23.088;2022-08-06T00:11:45;97153.56;;;18.90;36.75
39729;BME280;25402;42.004;23.088;2022-08-06T00:14:12;97151.56;;;18.85;37.18
39729;BME280;25402;42.004;23.088;2022-08-06T00:16:39;97148.50;;;18.82;37.12
39729;BME280;25402;42.004;23.088;2022-08-06T00:19:06;97153.38;;;18.80;36.94
39729;BME280;25402;42.004;23.088;2022-08-06T00:21:33;97142.03;;;18.71;37.23
39729;BME280;25402;42.004;23.088;2022-08-06T00:23:59;97149.47;;;18.75;37.22
39729;BME280;25402;42.004;23.088;2022-08-06T00:26:26;97151.06;;;18.71;37.42
39729;BME280;25402;42.004;23.088;2022-08-06T00:28:52;97146.31;;;18.67;37.30
39729;BME280;25402;42.004;23.088;2022-08-06T00:31:19;97150.38;;;18.64;37.26
39729;BME280;25402;42.004;23.088;2022-08-06T00:33:45;97153.03;;;18.59;37.65
39729;BME280;25402;42.004;23.088;2022-08-06T00:36:13;97142.59;;;18.56;37.42
39729;BME280;25402;42.004;23.088;2022-08-06T00:38:39;97143.56;;;18.50;37.56
39729;BME280;25402;42.004;23.088;2022-08-06T00:41:06;97145.84;;;18.42;37.84
39729;BME280;25402;42.004;23.088;2022-08-06T00:43:33;97145.16;;;18.34;37.96
39729;BME280;25402;42.004;23.088;2022-08-06T00:45:59;97150.41;;;18.36;37.79
39729;BME280;25402;42.004;23.088;2022-08-06T00:48:26;97148.63;;;18.30;38.03
39729;BME280;25402;42.004;23.088;2022-08-06T00:50:52;97149.03;;;18.22;38.09
39729;BME280;25402;42.004;23.088;2022-08-06T00:53:19;97145.81;;;18.25;38.04
39729;BME280;25402;42.004;23.088;2022-08-06T00:55:45;97137.31;;;18.10;38.18
39729;BME280;25402;42.004;23.088;2022-08-06T00:58:12;97157.97;;;18.17;38.63
39729;BME280;25402;42.004;23.088;2022-08-06T01:00:38;97159.53;;;18.13;38.58
39729;BME280;25402;42.004;23.088;2022-08-06T01:03:05;97160.03;;;18.10;38.48
39729;BME280;25402;42.004;23.088;2022-08-06T01:05:31;97156.72;;;18.08;38.74
39729;BME280;25402;42.004;23.088;2022-08-06T01:07:58;97160.19;;;18.03;38.58
39729;BME280;25402;42.004;23.088;2022-08-06T01:10:25;97129.53;;;17.78;38.89
39729;BME280;25402;42.004;23.088;2022-08-06T01:12:51;97159.63;;;17.90;38.94
39729;BME280;25402;42.004;23.088;2022-08-06T01:15:18;97168.91;;;17.89;39.11
39729;BME280;25402;42.004;23.088;2022-08-06T01:17:50;97163.06;;;17.85;39.46
39729;BME280;25402;42.004;23.088;2022-08-06T01:20:25;97167.38;;;17.81;39.15
39729;BME280;25402;42.004;23.088;2022-08-06T01:23:17;97157.03;;;17.71;39.36
39729;BME280;25402;42.004;23.088;2022-08-06T01:26:13;97157.38;;;17.75;39.23
39729;BME280;25402;42.004;23.088;2022-08-06T01:28:51;97163.94;;;17.62;39.62
39729;BME280;25402;42.004;23.088;2022-08-06T01:31:30;97158.13;;;17.59;39.90
39729;BME280;25402;42.004;23.088;2022-08-06T01:34:02;97162.41;;;17.55;39.92
39729;BME280;25402;42.004;23.088;2022-08-06T01:36:34;97162.75;;;17.58;39.94
39729;BME280;25402;42.004;23.088;2022-08-06T01:39:03;97163.59;;;17.59;39.66
39729;BME280;25402;42.004;23.088;2022-08-06T01:41:34;97162.41;;;17.55;39.78
39729;BME280;25402;42.004;23.088;2022-08-06T01:44:08;97165.38;;;17.53;40.06
39729;BME280;25402;42.004;23.088;2022-08-06T01:46:36;97150.06;;;17.41;39.98
39729;BME280;25402;42.004;23.088;2022-08-06T01:49:04;97151.84;;;17.35;39.80
39729;BME280;25402;42.004;23.088;2022-08-06T01:51:33;97165.88;;;17.39;39.72
39729;BME280;25402;42.004;23.088;2022-08-06T01:54:04;97168.59;;;17.39;39.97
39729;BME280;25402;42.004;23.088;2022-08-06T01:56:35;97157.44;;;17.28;40.16
39729;BME280;25402;42.004;23.088;2022-08-06T01:59:05;97185.47;;;17.35;40.00
39729;BME280;25402;42.004;23.088;2022-08-06T02:01:34;97175.50;;;17.29;40.18
39729;BME280;25402;42.004;23.088;2022-08-06T02:04:02;97181.44;;;17.26;40.67
39729;BME280;25402;42.004;23.088;2022-08-06T02:06:33;97181.09;;;17.23;40.80
39729;BME280;25402;42.004;23.088;2022-08-06T02:09:04;97182.38;;;17.20;40.97
39729;BME280;25402;42.004;23.088;2022-08-06T02:11:32;97162.50;;;17.01;40.99
39729;BME280;25402;42.004;23.088;2022-08-06T02:14:00;97183.19;;;17.09;41.27
39729;BME280;25402;42.004;23.088;2022-08-06T02:16:32;97165.72;;;16.98;41.34
39729;BME280;25402;42.004;23.088;2022-08-06T02:19:02;97180.09;;;17.06;41.03
39729;BME280;25402;42.004;23.088;2022-08-06T02:21:30;97181.63;;;17.01;41.29
39729;BME280;25402;42.004;23.088;2022-08-06T02:24:00;97182.34;;;16.97;41.05
39729;BME280;25402;42.004;23.088;2022-08-06T02:26:29;97178.88;;;16.90;41.18
39729;BME280;25402;42.004;23.088;2022-08-06T02:28:57;97185.56;;;16.94;41.29
39729;BME280;25402;42.004;23.088;2022-08-06T02:31:24;97181.63;;;16.90;41.59
39729;BME280;25402;42.004;23.088;2022-08-06T02:33:52;97180.78;;;16.89;41.65
39729;BME280;25402;42.004;23.088;2022-08-06T02:36:20;97191.34;;;16.86;41.34
39729;BME280;25402;42.004;23.088;2022-08-06T02:38:52;97178.19;;;16.83;41.54
39729;BME280;25402;42.004;23.088;2022-08-06T02:41:23;97190.16;;;16.82;41.36
39729;BME280;25402;42.004;23.088;2022-08-06T02:43:54;97185.16;;;16.79;41.52
39729;BME280;25402;42.004;23.088;2022-08-06T02:46:26;97183.03;;;16.81;41.35
39729;BME280;25402;42.004;23.088;2022-08-06T02:48:59;97173.50;;;16.72;41.32
39729;BME280;25402;42.004;23.088;2022-08-06T02:51:30;97169.47;;;16.62;41.22
39729;BME280;25402;42.004;23.088;2022-08-06T02:54:03;97157.09;;;16.48;41.43
39729;BME280;25402;42.004;23.088;2022-08-06T02:56:33;97174.31;;;16.60;41.79
39729;BME280;25402;42.004;23.088;2022-08-06T02:59:02;97192.50;;;16.66;41.80
39729;BME280;25402;42.004;23.088;2022-08-06T03:01:33;97182.97;;;16.57;41.70
39729;BME280;25402;42.004;23.088;2022-08-06T03:04:02;97182.50;;;16.60;41.61
39729;BME280;25402;42.004;23.088;2022-08-06T03:06:32;97187.38;;;16.58;42.08
39729;BME280;25402;42.004;23.088;2022-08-06T03:09:01;97187.00;;;16.55;41.74
39729;BME280;25402;42.004;23.088;2022-08-06T03:11:30;97166.78;;;16.44;41.91
39729;BME280;25402;42.004;23.088;2022-08-06T03:13:59;97186.03;;;16.49;42.28
39729;BME280;25402;42.004;23.088;2022-08-06T03:16:27;97189.47;;;16.45;42.55
39729;BME280;25402;42.004;23.088;2022-08-06T03:18:55;97159.56;;;16.20;42.34
39729;BME280;25402;42.004;23.088;2022-08-06T03:21:24;97199.38;;;16.39;42.27
39729;BME280;25402;42.004;23.088;2022-08-06T03:23:52;97201.75;;;16.36;42.68
39729;BME280;25402;42.004;23.088;2022-08-06T03:26:19;97196.97;;;16.31;42.69
39729;BME280;25402;42.004;23.088;2022-08-06T03:28:46;97200.41;;;16.26;42.37
39729;BME280;25402;42.004;23.088;2022-08-06T03:31:13;97195.78;;;16.27;42.33
39729;BME280;25402;42.004;23.088;2022-08-06T03:33:40;97202.28;;;16.26;42.70
39729;BME280;25402;42.004;23.088;2022-08-06T03:36:09;97180.78;;;16.18;42.34
39729;BME280;25402;42.004;23.088;2022-08-06T03:38:39;97201.59;;;16.30;42.19
39729;BME280;25402;42.004;23.088;2022-08-06T03:41:07;97188.66;;;16.26;42.18
39729;BME280;25402;42.004;23.088;2022-08-06T03:43:35;97203.06;;;16.33;42.23
39729;BME280;25402;42.004;23.088;2022-08-06T03:46:04;97212.41;;;16.37;42.59
39729;BME280;25402;42.004;23.088;2022-08-06T03:48:33;97208.06;;;16.36;42.79
39729;BME280;25402;42.004;23.088;2022-08-06T03:51:03;97202.66;;;16.29;42.75
39729;BME280;25402;42.004;23.088;2022-08-06T03:53:31;97199.47;;;16.32;42.82
39729;BME280;25402;42.004;23.088;2022-08-06T03:56:04;97196.22;;;16.24;42.64
39729;BME280;25402;42.004;23.088;2022-08-06T03:58:33;97213.50;;;16.36;42.79
39729;BME280;25402;42.004;23.088;2022-08-06T04:01:07;97215.66;;;16.64;42.97
39729;BME280;25402;42.004;23.088;2022-08-06T04:03:39;97219.94;;;17.25;42.74
39729;BME280;25402;42.004;23.088;2022-08-06T04:06:07;97211.50;;;17.85;40.89
39729;BME280;25402;42.004;23.088;2022-08-06T04:08:35;97222.78;;;18.40;40.14
39729;BME280;25402;42.004;23.088;2022-08-06T04:11:04;97209.47;;;18.89;38.93
39729;BME280;25402;42.004;23.088;2022-08-06T04:13:31;97221.28;;;19.39;37.88
39729;BME280;25402;42.004;23.088;2022-08-06T04:15:59;97227.94;;;20.21;36.75
39729;BME280;25402;42.004;23.088;2022-08-06T04:18:28;97230.72;;;20.69;35.31
39729;BME280;25402;42.004;23.088;2022-08-06T04:20:57;97227.34;;;21.16;34.65
39729;BME280;25402;42.004;23.088;2022-08-06T04:23:25;97237.19;;;21.76;33.40
39729;BME280;25402;42.004;23.088;2022-08-06T04:25:54;97236.63;;;22.21;33.00
39729;BME280;25402;42.004;23.088;2022-08-06T04:28:24;97241.25;;;22.73;32.02
39729;BME280;25402;42.004;23.088;2022-08-06T04:30:52;97230.56;;;23.07;31.42
39729;BME280;25402;42.004;23.088;2022-08-06T04:33:21;97246.59;;;23.66;30.33
39729;BME280;25402;42.004;23.088;2022-08-06T04:35:48;97252.03;;;24.11;29.40
39729;BME280;25402;42.004;23.088;2022-08-06T04:38:17;97255.25;;;24.54;28.64
39729;BME280;25402;42.004;23.088;2022-08-06T04:40:44;97257.34;;;24.82;28.63
39729;BME280;25402;42.004;23.088;2022-08-06T04:43:11;97255.94;;;25.24;27.94
39729;BME280;25402;42.004;23.088;2022-08-06T04:45:40;97233.03;;;25.52;27.46
39729;BME280;25402;42.004;23.088;2022-08-06T04:48:09;97235.25;;;25.84;27.13
39729;BME280;25402;42.004;23.088;2022-08-06T04:50:37;97260.63;;;26.20;26.74
39729;BME280;25402;42.004;23.088;2022-08-06T04:53:10;97248.16;;;26.65;26.15
39729;BME280;25402;42.004;23.088;2022-08-06T04:55:37;97254.84;;;26.88;25.89
39729;BME280;25402;42.004;23.088;2022-08-06T04:58:05;97265.69;;;27.41;25.07
39729;BME280;25402;42.004;23.088;2022-08-06T05:00:32;97272.28;;;27.64;24.55
39729;BME280;25402;42.004;23.088;2022-08-06T05:03:00;97271.78;;;28.08;24.20
39729;BME280;25402;42.004;23.088;2022-08-06T05:05:29;97268.88;;;28.32;24.10
39729;BME280;25402;42.004;23.088;2022-08-06T05:07:58;97267.94;;;28.78;23.28
39729;BME280;25402;42.004;23.088;2022-08-06T05:10:29;97270.22;;;29.25;22.71
39729;BME280;25402;42.004;23.088;2022-08-06T05:12:56;97273.47;;;29.86;21.71
39729;BME280;25402;42.004;23.088;2022-08-06T05:15:34;97265.31;;;30.51;21.17
39729;BME280;25402;42.004;23.088;2022-08-06T05:18:12;97260.88;;;31.24;20.50
39729;BME280;25402;42.004;23.088;2022-08-06T05:20:40;97243.94;;;31.55;19.80
39729;BME280;25402;42.004;23.088;2022-08-06T05:23:12;97261.16;;;32.00;19.13
39729;BME280;25402;42.004;23.088;2022-08-06T05:25:41;97243.19;;;32.10;19.37
39729;BME280;25402;42.004;23.088;2022-08-06T05:28:07;97262.91;;;32.13;19.31
39729;BME280;25402;42.004;23.088;2022-08-06T05:30:41;97268.56;;;32.05;19.25
39729;BME280;25402;42.004;23.088;2022-08-06T05:33:08;97259.72;;;31.68;19.73
39729;BME280;25402;42.004;23.088;2022-08-06T05:35:35;97258.06;;;31.85;19.90
39729;BME280;25402;42.004;23.088;2022-08-06T05:38:01;97256.25;;;31.71;19.73
39729;BME280;25402;42.004;23.088;2022-08-06T05:40:28;97255.13;;;31.55;19.67
39729;BME280;25402;42.004;23.088;2022-08-06T05:42:59;97262.03;;;31.58;19.92
39729;BME280;25402;42.004;23.088;2022-08-06T05:45:26;97266.81;;;31.57;19.74
39729;BME280;25402;42.004;23.088;2022-08-06T05:47:54;97271.91;;;31.55;19.73
39729;BME280;25402;42.004;23.088;2022-08-06T05:50:28;97256.25;;;31.71;19.49
39729;BME280;25402;42.004;23.088;2022-08-06T05:52:59;97259.22;;;31.75;19.34
39729;BME280;25402;42.004;23.088;2022-08-06T05:55:31;97258.06;;;31.76;19.67
39729;BME280;25402;42.004;23.088;2022-08-06T05:58:00;97259.06;;;31.80;19.42
39729;BME280;25402;42.004;23.088;2022-08-06T06:00:30;97250.50;;;31.76;19.41
39729;BME280;25402;42.004;23.088;2022-08-06T06:02:59;97239.16;;;31.64;19.20
39729;BME280;25402;42.004;23.088;2022-08-06T06:05:28;97248.88;;;31.50;19.47
39729;BME280;25402;42.004;23.088;2022-08-06T06:07:55;97241.34;;;31.41;19.75
39729;BME280;25402;42.004;23.088;2022-08-06T06:10:23;97245.59;;;31.39;19.59
39729;BME280;25402;42.004;23.088;2022-08-06T06:12:51;97245.91;;;31.55;19.76
39729;BME280;25402;42.004;23.088;2022-08-06T06:15:17;97249.69;;;31.67;19.52
39729;BME280;25402;42.004;23.088;2022-08-06T06:18:05;97243.78;;;31.60;19.40
39729;BME280;25402;42.004;23.088;2022-08-06T06:20:43;97239.97;;;31.73;19.34
39729;BME280;25402;42.004;23.088;2022-08-06T06:23:17;97239.34;;;31.59;19.18
39729;BME280;25402;42.004;23.088;2022-08-06T06:25:48;97227.19;;;31.55;19.65
39729;BME280;25402;42.004;23.088;2022-08-06T06:28:22;97227.84;;;31.61;19.47
39729;BME280;25402;42.004;23.088;2022-08-06T06:30:54;97218.31;;;31.44;19.41
39729;BME280;25402;42.004;23.088;2022-08-06T06:33:26;97233.22;;;31.66;19.35
39729;BME280;25402;42.004;23.088;2022-08-06T06:35:57;97222.03;;;31.74;19.24
39729;BME280;25402;42.004;23.088;2022-08-06T06:38:32;97227.16;;;31.72;19.23
39729;BME280;25402;42.004;23.088;2022-08-06T06:41:04;97214.66;;;31.78;19.32
39729;BME280;25402;42.004;23.088;2022-08-06T06:43:39;97219.25;;;31.83;19.29
39729;BME280;25402;42.004;23.088;2022-08-06T06:46:19;97205.13;;;31.79;19.35
39729;BME280;25402;42.004;23.088;2022-08-06T06:48:47;97217.09;;;31.89;19.18
39729;BME280;25402;42.004;23.088;2022-08-06T06:51:20;97202.81;;;31.64;19.21
39729;BME280;25402;42.004;23.088;2022-08-06T06:53:51;97208.22;;;31.78;19.17
39729;BME280;25402;42.004;23.088;2022-08-06T06:56:21;97203.78;;;31.68;19.17
39729;BME280;25402;42.004;23.088;2022-08-06T06:58:54;97197.72;;;31.66;19.18
39729;BME280;25402;42.004;23.088;2022-08-06T07:01:22;97200.81;;;31.73;19.18
39729;BME280;25402;42.004;23.088;2022-08-06T07:03:49;97184.09;;;31.56;19.25
39729;BME280;25402;42.004;23.088;2022-08-06T07:06:18;97177.50;;;31.52;19.62
39729;BME280;25402;42.004;23.088;2022-08-06T07:08:47;97189.50;;;31.35;19.98
39729;BME280;25402;42.004;23.088;2022-08-06T07:11:19;97183.78;;;31.23;19.72
39729;BME280;25402;42.004;23.088;2022-08-06T07:13:47;97154.84;;;31.19;19.65
39729;BME280;25402;42.004;23.088;2022-08-06T07:16:17;97175.53;;;31.35;19.71
39729;BME280;25402;42.004;23.088;2022-08-06T07:18:44;97174.59;;;31.40;19.90
39729;BME280;25402;42.004;23.088;2022-08-06T07:21:13;97168.81;;;31.54;19.89
39729;BME280;25402;42.004;23.088;2022-08-06T07:23:41;97163.38;;;31.57;19.85
39729;BME280;25402;42.004;23.088;2022-08-06T07:26:09;97157.78;;;31.57;19.56
39729;BME280;25402;42.004;23.088;2022-08-06T07:28:36;97159.09;;;31.51;19.65
39729;BME280;25402;42.004;23.088;2022-08-06T07:31:05;97159.09;;;31.51;19.76
39729;BME280;25402;42.004;23.088;2022-08-06T07:33:34;97155.00;;;31.57;19.69
39729;BME280;25402;42.004;23.088;2022-08-06T07:36:00;97150.19;;;31.66;19.22
39729;BME280;25402;42.004;23.088;2022-08-06T07:38:27;97144.09;;;31.64;19.38
39729;BME280;25402;42.004;23.088;2022-08-06T07:41:00;97133.28;;;31.54;19.12
39729;BME280;25402;42.004;23.088;2022-08-06T07:43:31;97141.19;;;31.52;19.42
39729;BME280;25402;42.004;23.088;2022-08-06T07:46:01;97135.91;;;31.51;19.71
39729;BME280;25402;42.004;23.088;2022-08-06T07:48:32;97131.53;;;31.41;19.47
39729;BME280;25402;42.004;23.088;2022-08-06T07:51:03;97128.56;;;31.46;19.44
39729;BME280;25402;42.004;23.088;2022-08-06T07:53:30;97126.59;;;31.38;19.98
39729;BME280;25402;42.004;23.088;2022-08-06T07:55:58;97124.94;;;31.45;19.89
39729;BME280;25402;42.004;23.088;2022-08-06T07:58:25;97108.81;;;31.34;19.84
39729;BME280;25402;42.004;23.088;2022-08-06T08:00:53;97119.19;;;31.42;19.73
39729;BME280;25402;42.004;23.088;2022-08-06T08:03:19;97123.78;;;31.46;19.48
39729;BME280;25402;42.004;23.088;2022-08-06T08:06:07;97098.66;;;31.29;19.25
39729;BME280;25402;42.004;23.088;2022-08-06T08:08:44;97110.16;;;31.45;19.97
39729;BME280;25402;42.004;23.088;2022-08-06T08:11:13;97122.59;;;31.56;19.65
39729;BME280;25402;42.004;23.088;2022-08-06T08:13:39;97117.00;;;31.56;19.85
39729;BME280;25402;42.004;23.088;2022-08-06T08:16:08;97121.72;;;31.64;19.67
39729;BME280;25402;42.004;23.088;2022-08-06T08:18:35;97116.34;;;31.59;19.37
39729;BME280;25402;42.004;23.088;2022-08-06T08:21:02;97114.69;;;31.58;19.58
39729;BME280;25402;42.004;23.088;2022-08-06T08:23:29;97120.94;;;31.64;18.92
39729;BME280;25402;42.004;23.088;2022-08-06T08:25:57;97111.59;;;31.51;18.92
39729;BME280;25402;42.004;23.088;2022-08-06T08:28:25;97101.81;;;31.10;19.53
39729;BME280;25402;42.004;23.088;2022-08-06T08:30:52;97111.16;;;31.15;19.53
39729;BME280;25402;42.004;23.088;2022-08-06T08:33:19;97094.72;;;31.22;19.27
39729;BME280;25402;42.004;23.088;2022-08-06T08:35:46;97108.84;;;31.42;18.81
39729;BME280;25402;42.004;23.088;2022-08-06T08:38:12;97115.53;;;31.50;18.71
39729;BME280;25402;42.004;23.088;2022-08-06T08:40:39;97109.25;;;31.62;18.80
39729;BME280;25402;42.004;23.088;2022-08-06T08:43:07;97108.94;;;31.63;18.79
39729;BME280;25402;42.004;23.088;2022-08-06T08:45:37;97098.38;;;31.69;19.33
39729;BME280;25402;42.004;23.088;2022-08-06T08:48:06;97104.59;;;31.74;19.16
39729;BME280;25402;42.004;23.088;2022-08-06T08:50:33;97104.06;;;31.90;18.86
39729;BME280;25402;42.004;23.088;2022-08-06T08:53:03;97079.13;;;31.67;18.92
39729;BME280;25402;42.004;23.088;2022-08-06T08:55:32;97075.78;;;31.44;19.17
39729;BME280;25402;42.004;23.088;2022-08-06T08:57:58;97079.72;;;31.35;19.30
39729;BME280;25402;42.004;23.088;2022-08-06T09:00:26;97093.97;;;31.59;19.41
39729;BME280;25402;42.004;23.088;2022-08-06T09:02:53;97037.09;;;31.55;18.98
39729;BME280;25402;42.004;23.088;2022-08-06T09:05:20;97084.88;;;32.09;18.80
39729;BME280;25402;42.004;23.088;2022-08-06T09:07:47;97068.19;;;31.92;18.41
39729;BME280;25402;42.004;23.088;2022-08-06T09:10:13;97085.16;;;31.87;18.82
39729;BME280;25402;42.004;23.088;2022-08-06T09:12:40;97079.19;;;31.97;18.78
39729;BME280;25402;42.004;23.088;2022-08-06T09:15:07;97057.00;;;31.92;18.86
39729;BME280;25402;42.004;23.088;2022-08-06T09:17:34;97052.44;;;31.78;18.92
39729;BME280;25402;42.004;23.088;2022-08-06T09:20:03;97066.47;;;32.08;18.49
39729;BME280;25402;42.004;23.088;2022-08-06T09:22:30;97075.81;;;32.41;18.10
39729;BME280;25402;42.004;23.088;2022-08-06T09:24:56;97061.75;;;32.71;17.68
39729;BME280;25402;42.004;23.088;2022-08-06T09:27:23;97056.69;;;32.85;17.91
39729;BME280;25402;42.004;23.088;2022-08-06T09:30:00;97058.81;;;32.88;17.50
39729;BME280;25402;42.004;23.088;2022-08-06T09:32:37;97056.44;;;33.11;17.16
39729;BME280;25402;42.004;23.088;2022-08-06T09:35:16;97047.53;;;33.42;17.52
39729;BME280;25402;42.004;23.088;2022-08-06T09:37:43;97042.72;;;33.30;17.43
39729;BME280;25402;42.004;23.088;2022-08-06T09:40:14;97055.75;;;33.71;17.73
39729;BME280;25402;42.004;23.088;2022-08-06T09:42:42;97054.16;;;33.95;17.16
39729;BME280;25402;42.004;23.088;2022-08-06T09:45:10;97041.84;;;33.75;16.78
39729;BME280;25402;42.004;23.088;2022-08-06T09:47:38;97016.28;;;33.89;16.69
39729;BME280;25402;42.004;23.088;2022-08-06T09:50:06;97039.91;;;34.00;16.68
39729;BME280;25402;42.004;23.088;2022-08-06T09:52:33;97033.91;;;34.13;16.30
39729;BME280;25402;42.004;23.088;2022-08-06T09:55:00;97023.88;;;34.12;16.38
39729;BME280;25402;42.004;23.088;2022-08-06T09:57:27;97019.28;;;34.20;16.32
39729;BME280;25402;42.004;23.088;2022-08-06T10:00:07;97022.78;;;34.17;16.98
39729;BME280;25402;42.004;23.088;2022-08-06T10:02:34;97021.53;;;34.14;16.71
39729;BME280;25402;42.004;23.088;2022-08-06T10:05:09;97029.25;;;34.30;16.69
39729;BME280;25402;42.004;23.088;2022-08-06T10:07:35;97011.59;;;34.57;16.40
39729;BME280;25402;42.004;23.088;2022-08-06T10:10:02;97025.19;;;34.83;16.19
39729;BME280;25402;42.004;23.088;2022-08-06T10:12:29;97025.06;;;34.92;16.02
39729;BME280;25402;42.004;23.088;2022-08-06T10:14:56;97014.19;;;34.90;16.12
39729;BME280;25402;42.004;23.088;2022-08-06T10:17:23;97017.34;;;33.96;16.61
39729;BME280;25402;42.004;23.088;2022-08-06T10:20:05;96998.50;;;33.72;16.63
39729;BME280;25402;42.004;23.088;2022-08-06T10:22:32;97010.78;;;33.68;16.77
39729;BME280;25402;42.004;23.088;2022-08-06T10:25:03;96999.88;;;33.30;16.87
39729;BME280;25402;42.004;23.088;2022-08-06T10:27:31;96996.13;;;32.93;16.99
39729;BME280;25402;42.004;23.088;2022-08-06T10:30:01;97006.69;;;32.75;17.11
39729;BME280;25402;42.004;23.088;2022-08-06T10:32:31;96997.41;;;32.83;17.43
39729;BME280;25402;42.004;23.088;2022-08-06T10:35:02;96995.88;;;32.86;17.23
39729;BME280;25402;42.004;23.088;2022-08-06T10:37:32;96995.75;;;33.27;17.00
39729;BME280;25402;42.004;23.088;2022-08-06T10:40:01;96976.97;;;33.40;17.10
39729;BME280;25402;42.004;23.088;2022-08-06T10:42:28;96987.78;;;33.50;16.60
39729;BME280;25402;42.004;23.088;2022-08-06T10:44:56;97003.97;;;33.44;16.76
39729;BME280;25402;42.004;23.088;2022-08-06T10:47:24;96980.47;;;32.92;17.21
39729;BME280;25402;42.004;23.088;2022-08-06T10:49:53;96990.31;;;32.65;17.31
39729;BME280;25402;42.004;23.088;2022-08-06T10:52:20;96957.97;;;32.34;17.86
39729;BME280;25402;42.004;23.088;2022-08-06T10:54:48;96990.69;;;32.42;17.58
39729;BME280;25402;42.004;23.088;2022-08-06T10:57:16;96977.09;;;32.32;17.61
39729;BME280;25402;42.004;23.088;2022-08-06T10:59:43;96986.94;;;32.38;17.95
39729;BME280;25402;42.004;23.088;2022-08-06T11:02:19;96967.72;;;32.28;17.64
39729;BME280;25402;42.004;23.088;2022-08-06T11:04:50;96974.03;;;32.25;17.45
39729;BME280;25402;42.004;23.088;2022-08-06T11:07:46;96978.34;;;32.23;17.50
39729;BME280;25402;42.004;23.088;2022-08-06T11:10:37;96960.00;;;31.84;17.87
39729;BME280;25402;42.004;23.088;2022-08-06T11:13:13;96967.59;;;31.74;17.94
39729;BME280;25402;42.004;23.088;2022-08-06T11:15:43;96970.53;;;31.48;17.99
39729;BME280;25402;42.004;23.088;2022-08-06T11:18:11;96970.00;;;31.55;18.10
39729;BME280;25402;42.004;23.088;2022-08-06T11:20:41;96964.50;;;31.97;17.91
39729;BME280;25402;42.004;23.088;2022-08-06T11:23:25;96971.03;;;32.63;17.27
39729;BME280;25402;42.004;23.088;2022-08-06T11:25:54;96969.63;;;32.90;16.86
39729;BME280;25402;42.004;23.088;2022-08-06T11:31:37;96958.16;;;34.13;15.56
39729;BME280;25402;42.004;23.088;2022-08-06T11:34:06;96958.66;;;34.43;15.49
39729;BME280;25402;42.004;23.088;2022-08-06T11:36:54;96942.06;;;34.94;15.02
39729;BME280;25402;42.004;23.088;2022-08-06T11:39:23;96936.34;;;35.06;15.63
39729;BME280;25402;42.004;23.088;2022-08-06T11:42:00;96950.69;;;35.64;15.08
39729;BME280;25402;42.004;23.088;2022-08-06T11:44:30;96941.25;;;35.72;15.00
39729;BME280;25402;42.004;23.088;2022-08-06T11:47:10;96939.66;;;35.75;14.94
39729;BME280;25402;42.004;23.088;2022-08-06T11:49:39;96934.25;;;35.66;15.04
39729;BME280;25402;42.004;23.088;2022-08-06T11:52:07;96936.00;;;35.39;14.75
39729;BME280;25402;42.004;23.088;2022-08-06T11:54:35;96947.72;;;35.26;15.17
39729;BME280;25402;42.004;23.088;2022-08-06T11:57:22;96940.78;;;35.07;15.71
39729;BME280;25402;42.004;23.088;2022-08-06T12:00:16;96932.06;;;34.97;15.35
39729;BME280;25402;42.004;23.088;2022-08-06T12:02:54;96931.06;;;34.89;15.30
39729;BME280;25402;42.004;23.088;2022-08-06T12:05:41;96936.31;;;34.75;15.30
39729;BME280;25402;42.004;23.088;2022-08-06T12:08:21;96918.22;;;34.60;15.34
39729;BME280;25402;42.004;23.088;2022-08-06T12:11:26;96925.63;;;34.52;15.64
39729;BME280;25402;42.004;23.088;2022-08-06T12:13:57;96926.28;;;33.81;15.83
39729;BME280;25402;42.004;23.088;2022-08-06T12:16:35;96913.19;;;33.73;15.98
39729;BME280;25402;42.004;23.088;2022-08-06T12:19:03;96916.25;;;34.20;15.88
39729;BME280;25402;42.004;23.088;2022-08-06T12:21:30;96918.81;;;34.26;15.43
39729;BME280;25402;42.004;23.088;2022-08-06T12:23:57;96920.63;;;34.46;15.28
39729;BME280;25402;42.004;23.088;2022-08-06T12:26:30;96907.84;;;34.48;14.73
39729;BME280;25402;42.004;23.088;2022-08-06T12:29:01;96914.72;;;34.51;14.68
39729;BME280;25402;42.004;23.088;2022-08-06T12:31:38;96898.81;;;34.55;15.10
39729;BME280;25402;42.004;23.088;2022-08-06T12:34:07;96898.41;;;34.41;15.29
39729;BME280;25402;42.004;23.088;2022-08-06T12:36:35;96911.47;;;34.49;15.54
39729;BME280;25402;42.004;23.088;2022-08-06T12:39:05;96912.03;;;34.98;14.87
39729;BME280;25402;42.004;23.088;2022-08-06T12:41:36;96881.34;;;35.21;14.77
39729;BME280;25402;42.004;23.088;2022-08-06T12:44:04;96908.09;;;35.81;14.58
39729;BME280;25402;42.004;23.088;2022-08-06T12:46:31;96896.00;;;35.97;13.87
39729;BME280;25402;42.004;23.088;2022-08-06T12:48:58;96900.22;;;36.06;14.01
39729;BME280;25402;42.004;23.088;2022-08-06T12:51:25;96885.47;;;35.94;14.26
39729;BME280;25402;42.004;23.088;2022-08-06T12:53:52;96900.41;;;35.63;14.55
39729;BME280;25402;42.004;23.088;2022-08-06T12:56:21;96907.25;;;35.97;14.67
39729;BME280;25402;42.004;23.088;2022-08-06T12:58:50;96904.09;;;35.82;14.17
39729;BME280;25402;42.004;23.088;2022-08-06T13:01:19;96896.72;;;35.11;14.59
39729;BME280;25402;42.004;23.088;2022-08-06T13:03:48;96894.81;;;34.84;15.10
39729;BME280;25402;42.004;23.088;2022-08-06T13:06:16;96871.91;;;34.26;15.20
39729;BME280;25402;42.004;23.088;2022-08-06T13:08:45;96898.94;;;33.78;16.09